Time;durP1;ratioP1;P1;durP2;ratioP2;P2;SDS_P1;SDS_P2;PMS_P1;PMS_P2;Temp;Humidity;BMP_temperature;BMP_pressure;BME280_temperature;BME280_humidity;BME280_pressure;Samples;Min_cycle;Max_cycle;Signal;HPM_P1;HPM_P2
2022/10/07 00:02:00;;;;;;;19.05;9.73;;;;;;;;;;5041672;28;20013;-67
2022/10/07 00:04:26;;;;;;;20.60;10.73;;;;;;;;;;5056129;28;20083;-67
2022/10/07 00:06:52;;;;;;;20.55;9.35;;;;;;;;;;5038048;28;20064;-66
2022/10/07 00:09:18;;;;;;;25.73;10.15;;;;;;;;;;4706054;28;10000661;-64
2022/10/07 00:11:44;;;;;;;19.42;10.13;;;;;;;;;;4691425;28;10000236;-67
2022/10/07 00:14:11;;;;;;;20.15;9.75;;;;;;;;;;5042482;28;20095;-67
2022/10/07 00:16:38;;;;;;;24.08;9.77;;;;;;;;;;5034501;28;20441;-67
2022/10/07 00:19:06;;;;;;;19.52;9.45;;;;;;;;;;5014463;28;20022;-66
2022/10/07 00:21:33;;;;;;;20.88;9.68;;;;;;;;;;5018869;28;20033;-67
2022/10/07 00:23:59;;;;;;;18.17;9.25;;;;;;;;;;5051453;28;20033;-66
2022/10/07 00:26:26;;;;;;;19.40;9.57;;;;;;;;;;5053588;28;20028;-66
2022/10/07 00:28:53;;;;;;;21.73;10.30;;;;;;;;;;5053896;28;20040;-66
2022/10/07 00:31:26;;;;;;;21.45;10.25;;;;;;;;;;5054701;28;20025;-66
2022/10/07 00:33:53;;;;;;;19.05;9.75;;;;;;;;;;5054831;28;20018;-66
2022/10/07 00:36:22;;;;;;;22.42;9.55;;;;;;;;;;5054774;28;20028;-67
2022/10/07 00:38:55;;;;;;;22.45;9.90;;;;;;;;;;5054129;28;20608;-66
2022/10/07 00:41:22;;;;;;;19.00;10.30;;;;;;;;;;5055139;28;20436;-67
2022/10/07 00:43:49;;;;;;;21.65;10.32;;;;;;;;;;5055035;28;20441;-66
2022/10/07 00:46:14;;;;;;;18.95;9.70;;;;;;;;;;5054964;28;20033;-67
2022/10/07 00:48:41;;;;;;;22.38;10.50;;;;;;;;;;5054553;28;20033;-67
2022/10/07 00:51:08;;;;;;;20.25;10.60;;;;;;;;;;5036795;28;20017;-66
2022/10/07 00:53:35;;;;;;;23.42;10.32;;;;;;;;;;5054449;28;20104;-67
2022/10/07 00:56:02;;;;;;;21.55;10.60;;;;;;;;;;5054734;28;20024;-65
2022/10/07 00:58:36;;;;;;;21.35;10.07;;;;;;;;;;5054376;28;20366;-68
2022/10/07 01:01:02;;;;;;;22.20;11.40;;;;;;;;;;5036494;28;20119;-67
2022/10/07 01:03:28;;;;;;;23.35;13.35;;;;;;;;;;5041007;28;20612;-67
2022/10/07 01:05:55;;;;;;;39.85;24.02;;;;;;;;;;5034533;28;20094;-67
2022/10/07 01:08:22;;;;;;;26.45;15.50;;;;;;;;;;5034480;28;20045;-67
2022/10/07 01:10:48;;;;;;;30.38;16.20;;;;;;;;;;5034055;28;20049;-66
2022/10/07 01:13:20;;;;;;;32.25;16.83;;;;;;;;;;5034277;28;20025;-67
2022/10/07 01:15:52;;;;;;;24.27;14.05;;;;;;;;;;5035063;28;20022;-67
2022/10/07 01:18:28;;;;;;;27.77;12.48;;;;;;;;;;5034960;28;20048;-67
2022/10/07 01:21:01;;;;;;;23.42;12.48;;;;;;;;;;5017532;28;20183;-67
2022/10/07 01:23:51;;;;;;;29.90;16.10;;;;;;;;;;5034188;28;20112;-67
2022/10/07 01:26:36;;;;;;;27.95;15.77;;;;;;;;;;5034530;28;20029;-67
2022/10/07 01:29:04;;;;;;;20.73;11.40;;;;;;;;;;5034627;28;20036;-67
2022/10/07 01:31:40;;;;;;;23.15;12.10;;;;;;;;;;5034068;28;20025;-68
2022/10/07 01:34:07;;;;;;;24.25;11.52;;;;;;;;;;5016189;28;20033;-66
2022/10/07 01:36:35;;;;;;;25.42;12.35;;;;;;;;;;5034117;28;20366;-67
2022/10/07 01:39:04;;;;;;;19.27;10.95;;;;;;;;;;5034010;28;20045;-66
2022/10/07 01:41:31;;;;;;;23.65;10.63;;;;;;;;;;5034065;28;20510;-67
2022/10/07 01:43:58;;;;;;;22.60;12.85;;;;;;;;;;5033410;28;20033;-67
2022/10/07 01:46:25;;;;;;;23.40;11.30;;;;;;;;;;5033717;28;20026;-68
2022/10/07 01:48:52;;;;;;;22.13;11.48;;;;;;;;;;5033634;28;20099;-66
2022/10/07 01:51:20;;;;;;;22.95;11.30;;;;;;;;;;5016264;28;20026;-67
2022/10/07 01:53:48;;;;;;;23.45;11.60;;;;;;;;;;5016112;28;20128;-68
2022/10/07 01:56:33;;;;;;;19.50;11.20;;;;;;;;;;5033918;28;20541;-66
2022/10/07 01:59:03;;;;;;;23.70;11.70;;;;;;;;;;5033502;28;20032;-67
2022/10/07 02:02:08;;;;;;;19.05;10.38;;;;;;;;;;5033633;28;20416;-67
2022/10/07 02:05:00;;;;;;;21.45;11.18;;;;;;;;;;4972331;28;20086;-67
2022/10/07 02:07:59;;;;;;;21.23;11.30;;;;;;;;;;4968380;28;20045;-64
2022/10/07 02:10:39;;;;;;;28.45;12.07;;;;;;;;;;4982126;28;20037;-65
2022/10/07 02:13:11;;;;;;;21.38;11.60;;;;;;;;;;5032845;28;20033;-66
2022/10/07 02:15:44;;;;;;;20.77;11.25;;;;;;;;;;5033030;28;20025;-65
2022/10/07 02:18:13;;;;;;;20.80;10.77;;;;;;;;;;5032994;28;20056;-65
2022/10/07 02:20:41;;;;;;;20.45;11.18;;;;;;;;;;5050645;28;20021;-65
2022/10/07 02:23:09;;;;;;;20.35;11.30;;;;;;;;;;5052476;28;20013;-69
2022/10/07 02:25:38;;;;;;;22.17;10.70;;;;;;;;;;5052708;28;20377;-65
2022/10/07 02:28:05;;;;;;;29.13;13.32;;;;;;;;;;5052653;28;20025;-65
2022/10/07 02:30:32;;;;;;;20.15;11.43;;;;;;;;;;5052844;28;20035;-66
2022/10/07 02:33:02;;;;;;;22.52;10.93;;;;;;;;;;5053059;28;20158;-65
2022/10/07 02:35:36;;;;;;;21.15;11.05;;;;;;;;;;5052908;28;20385;-66
2022/10/07 02:38:05;;;;;;;20.05;10.55;;;;;;;;;;5052587;28;20052;-66
2022/10/07 02:40:36;;;;;;;21.13;12.30;;;;;;;;;;5046301;28;20413;-66
2022/10/07 02:43:03;;;;;;;22.08;11.50;;;;;;;;;;5025214;28;20039;-64
2022/10/07 02:45:42;;;;;;;19.45;10.60;;;;;;;;;;5052639;28;20108;-65
2022/10/07 02:48:08;;;;;;;22.17;11.30;;;;;;;;;;5052547;28;20052;-65
2022/10/07 02:50:36;;;;;;;21.77;11.65;;;;;;;;;;5052362;28;20103;-66
2022/10/07 02:53:03;;;;;;;18.98;10.27;;;;;;;;;;5052472;28;20031;-64
2022/10/07 02:55:30;;;;;;;21.33;10.60;;;;;;;;;;5052293;28;20032;-65
2022/10/07 02:57:58;;;;;;;20.42;11.05;;;;;;;;;;5052297;28;20028;-65
2022/10/07 03:00:24;;;;;;;18.35;10.40;;;;;;;;;;5052387;28;20485;-65
2022/10/07 03:02:54;;;;;;;20.52;11.13;;;;;;;;;;5052323;28;20415;-65
2022/10/07 03:05:23;;;;;;;24.58;11.75;;;;;;;;;;5052163;28;20393;-65
2022/10/07 03:07:50;;;;;;;20.05;10.77;;;;;;;;;;5045791;28;20032;-65
2022/10/07 03:10:16;;;;;;;19.17;10.50;;;;;;;;;;5032365;28;20033;-65
2022/10/07 03:12:42;;;;;;;23.30;10.82;;;;;;;;;;5032173;28;20511;-65
2022/10/07 03:15:12;;;;;;;20.38;11.82;;;;;;;;;;5032194;28;20516;-65
2022/10/07 03:17:38;;;;;;;19.05;10.73;;;;;;;;;;5032237;28;20041;-65
2022/10/07 03:20:05;;;;;;;21.30;10.93;;;;;;;;;;5032037;28;20362;-65
2022/10/07 03:22:31;;;;;;;21.15;10.48;;;;;;;;;;5032024;28;20033;-65
2022/10/07 03:24:57;;;;;;;24.42;11.05;;;;;;;;;;5031699;28;20523;-63
2022/10/07 03:27:23;;;;;;;20.88;10.80;;;;;;;;;;5031998;28;20052;-65
2022/10/07 03:29:49;;;;;;;18.38;10.30;;;;;;;;;;5014099;28;20025;-66
2022/10/07 03:32:15;;;;;;;20.15;10.07;;;;;;;;;;5031862;28;20551;-65
2022/10/07 03:34:42;;;;;;;20.80;11.10;;;;;;;;;;5014612;28;20107;-65
2022/10/07 03:37:08;;;;;;;23.40;10.88;;;;;;;;;;5031932;28;20025;-65
2022/10/07 03:39:34;;;;;;;20.55;11.05;;;;;;;;;;5031808;28;20044;-66
2022/10/07 03:42:00;;;;;;;21.17;10.35;;;;;;;;;;5032125;28;20477;-65
2022/10/07 03:44:26;;;;;;;22.75;10.77;;;;;;;;;;5014105;28;20029;-65
2022/10/07 03:46:52;;;;;;;19.73;10.23;;;;;;;;;;5034237;28;20108;-65
2022/10/07 03:49:19;;;;;;;19.90;10.75;;;;;;;;;;5033809;28;20129;-65
2022/10/07 03:51:45;;;;;;;26.95;10.63;;;;;;;;;;5051843;28;20021;-65
2022/10/07 03:54:11;;;;;;;19.92;11.05;;;;;;;;;;5066268;28;20232;-66
2022/10/07 03:56:37;;;;;;;20.67;9.88;;;;;;;;;;5051627;28;20029;-65
2022/10/07 03:59:03;;;;;;;18.92;10.15;;;;;;;;;;5052907;28;20021;-65
2022/10/07 04:01:30;;;;;;;27.98;12.80;;;;;;;;;;5051819;28;20063;-65
2022/10/07 04:03:56;;;;;;;23.40;11.73;;;;;;;;;;5051538;28;20392;-65
2022/10/07 04:06:22;;;;;;;23.25;10.55;;;;;;;;;;5051567;28;20465;-65
2022/10/07 04:08:52;;;;;;;22.27;11.20;;;;;;;;;;5051537;28;20031;-66
2022/10/07 04:11:18;;;;;;;20.70;11.88;;;;;;;;;;5051434;28;20492;-65
2022/10/07 04:13:44;;;;;;;19.27;10.85;;;;;;;;;;5034867;28;20030;-66
2022/10/07 04:16:12;;;;;;;23.17;11.13;;;;;;;;;;5014072;28;20592;-65
2022/10/07 04:18:38;;;;;;;20.25;11.25;;;;;;;;;;5014214;28;20024;-66
2022/10/07 04:21:04;;;;;;;21.27;12.25;;;;;;;;;;5031692;28;20018;-65
2022/10/07 04:23:30;;;;;;;20.95;11.77;;;;;;;;;;5013673;28;20124;-67
2022/10/07 04:25:56;;;;;;;22.63;12.23;;;;;;;;;;5013884;28;20029;-65
2022/10/07 04:28:23;;;;;;;21.67;11.23;;;;;;;;;;5031436;28;20026;-66
2022/10/07 04:30:52;;;;;;;23.90;11.40;;;;;;;;;;5031505;28;20018;-65
2022/10/07 04:33:22;;;;;;;23.20;10.98;;;;;;;;;;5013883;28;20485;-65
2022/10/07 04:35:49;;;;;;;21.20;11.20;;;;;;;;;;5031647;28;20418;-65
2022/10/07 04:38:16;;;;;;;23.67;11.90;;;;;;;;;;5014683;28;20095;-65
2022/10/07 04:40:44;;;;;;;23.27;11.70;;;;;;;;;;5031330;28;20026;-65
2022/10/07 04:43:25;;;;;;;21.25;11.25;;;;;;;;;;5031375;28;20025;-65
2022/10/07 04:46:00;;;;;;;22.70;11.30;;;;;;;;;;5013628;28;20032;-65
2022/10/07 04:48:26;;;;;;;22.60;11.23;;;;;;;;;;5040208;28;20021;-66
2022/10/07 04:50:53;;;;;;;20.48;11.68;;;;;;;;;;5042293;28;20060;-65
2022/10/07 04:53:19;;;;;;;25.65;13.18;;;;;;;;;;5024195;28;20022;-64
2022/10/07 04:55:47;;;;;;;21.10;12.32;;;;;;;;;;5038240;28;20033;-65
2022/10/07 04:58:17;;;;;;;21.40;12.18;;;;;;;;;;5037632;28;20084;-65
2022/10/07 05:00:44;;;;;;;24.77;11.65;;;;;;;;;;5037318;28;20369;-65
2022/10/07 05:03:11;;;;;;;23.20;11.70;;;;;;;;;;5036947;28;20022;-65
2022/10/07 05:05:40;;;;;;;24.70;12.48;;;;;;;;;;5035471;28;20087;-65
2022/10/07 05:08:06;;;;;;;;;;;;;;;;;;5035517;28;20604;-65
2022/10/07 05:10:34;;;;;;;20.67;11.18;;;;;;;;;;5035204;28;19913;-65
2022/10/07 05:13:00;;;;;;;21.65;11.48;;;;;;;;;;5035200;28;20040;-65
2022/10/07 05:15:26;;;;;;;25.42;11.05;;;;;;;;;;5035273;28;20426;-65
2022/10/07 05:17:54;;;;;;;22.98;11.40;;;;;;;;;;5034997;28;20029;-64
2022/10/07 05:20:20;;;;;;;25.85;11.52;;;;;;;;;;5035059;28;20022;-64
2022/10/07 05:22:47;;;;;;;22.77;11.10;;;;;;;;;;5017287;28;20030;-66
2022/10/07 05:25:13;;;;;;;20.30;11.70;;;;;;;;;;5034856;28;20029;-66
2022/10/07 05:27:39;;;;;;;21.50;12.52;;;;;;;;;;5041090;28;20041;-66
2022/10/07 05:30:06;;;;;;;22.25;11.48;;;;;;;;;;5054878;28;20021;-66
2022/10/07 05:32:32;;;;;;;23.60;11.20;;;;;;;;;;5037783;28;20022;-65
2022/10/07 05:34:58;;;;;;;21.48;12.13;;;;;;;;;;5034546;28;20462;-64
2022/10/07 05:37:24;;;;;;;23.98;11.88;;;;;;;;;;5034122;28;20033;-65
2022/10/07 05:39:50;;;;;;;23.42;11.98;;;;;;;;;;5033804;28;20071;-65
2022/10/07 05:42:17;;;;;;;22.80;11.82;;;;;;;;;;5016215;28;20021;-66
2022/10/07 05:44:43;;;;;;;22.63;11.77;;;;;;;;;;5033706;28;20030;-65
2022/10/07 05:47:09;;;;;;;25.65;12.20;;;;;;;;;;5015926;28;20037;-65
2022/10/07 05:49:34;;;;;;;20.95;10.88;;;;;;;;;;5033802;28;20120;-64
2022/10/07 05:52:01;;;;;;;23.48;11.30;;;;;;;;;;5033985;28;20021;-65
2022/10/07 05:54:27;;;;;;;20.00;10.60;;;;;;;;;;5034736;28;20409;-66
2022/10/07 05:56:53;;;;;;;20.88;10.80;;;;;;;;;;5037690;28;20029;-68
2022/10/07 05:59:19;;;;;;;25.50;11.68;;;;;;;;;;5037276;28;20029;-64
2022/10/07 06:01:45;;;;;;;23.52;10.98;;;;;;;;;;5034180;28;20493;-65
2022/10/07 06:04:12;;;;;;;24.27;11.20;;;;;;;;;;5035320;28;20103;-64
2022/10/07 06:06:39;;;;;;;24.63;11.02;;;;;;;;;;5034871;28;20182;-65
2022/10/07 06:14:34;;;;;;;25.13;10.63;;;;;;;;;;5033424;28;20041;-66
2022/10/07 06:17:00;;;;;;;22.85;11.35;;;;;;;;;;5015113;28;20393;-66
2022/10/07 06:19:26;;;;;;;30.67;13.02;;;;;;;;;;5014861;28;20026;-66
2022/10/07 06:21:52;;;;;;;24.85;11.02;;;;;;;;;;5056541;22;20119;-69
2022/10/07 06:24:19;;;;;;;23.65;11.00;;;;;;;;;;5013809;28;20033;-68
2022/10/07 06:26:45;;;;;;;22.13;10.77;;;;;;;;;;5030614;28;20488;-69
2022/10/07 06:29:11;;;;;;;22.98;10.85;;;;;;;;;;5032135;28;20035;-70
2022/10/07 06:31:38;;;;;;;25.35;10.88;;;;;;;;;;5047532;28;20400;-70
2022/10/07 06:34:04;;;;;;;22.42;10.80;;;;;;;;;;5014280;28;20025;-71
2022/10/07 06:36:29;;;;;;;21.17;11.02;;;;;;;;;;5032042;28;20111;-72
2022/10/07 06:38:56;;;;;;;26.38;12.35;;;;;;;;;;5032092;28;20077;-69
2022/10/07 06:41:22;;;;;;;23.60;11.20;;;;;;;;;;5014207;28;20018;-69
2022/10/07 06:43:49;;;;;;;23.25;10.02;;;;;;;;;;5031756;28;20415;-67
2022/10/07 06:46:19;;;;;;;21.65;11.00;;;;;;;;;;5031769;28;20179;-64
2022/10/07 06:48:45;;;;;;;20.45;10.35;;;;;;;;;;5007902;28;20566;-64
2022/10/07 06:51:21;;;;;;;18.75;9.75;;;;;;;;;;5011490;28;20389;-63
2022/10/07 06:53:51;;;;;;;20.40;10.65;;;;;;;;;;5011119;28;20026;-63
2022/10/07 06:56:17;;;;;;;22.65;9.95;;;;;;;;;;5011419;28;20034;-63
2022/10/07 06:58:43;;;;;;;21.27;10.35;;;;;;;;;;5009999;28;20021;-61
2022/10/07 07:01:09;;;;;;;28.02;10.20;;;;;;;;;;5011148;28;20519;-63
2022/10/07 07:03:35;;;;;;;19.90;10.13;;;;;;;;;;5010955;28;20022;-64
2022/10/07 07:06:01;;;;;;;18.10;9.98;;;;;;;;;;4993543;28;20075;-63
2022/10/07 07:08:30;;;;;;;20.65;10.05;;;;;;;;;;5010986;28;20022;-61
2022/10/07 07:11:01;;;;;;;25.45;11.13;;;;;;;;;;4992873;28;20396;-63
2022/10/07 07:13:27;;;;;;;17.13;9.43;;;;;;;;;;5011000;28;20022;-65
2022/10/07 07:15:58;;;;;;;20.55;9.73;;;;;;;;;;5025733;28;20026;-62
2022/10/07 07:18:24;;;;;;;21.98;10.57;;;;;;;;;;4991533;28;20077;-65
2022/10/07 07:20:50;;;;;;;19.63;9.57;;;;;;;;;;4973786;28;20078;-64
2022/10/07 07:23:16;;;;;;;20.98;9.75;;;;;;;;;;4991029;28;20042;-65
2022/10/07 07:25:44;;;;;;;20.00;9.98;;;;;;;;;;4991327;28;20045;-65
2022/10/07 07:28:11;;;;;;;21.75;10.60;;;;;;;;;;4991279;28;20022;-65
2022/10/07 07:30:38;;;;;;;22.88;10.27;;;;;;;;;;4978678;28;20047;-64
2022/10/07 07:33:04;;;;;;;19.55;10.15;;;;;;;;;;5010501;28;20033;-64
2022/10/07 07:35:31;;;;;;;22.77;10.55;;;;;;;;;;5012606;28;20034;-65
2022/10/07 07:37:57;;;;;;;23.90;9.98;;;;;;;;;;5030651;28;20155;-65
2022/10/07 07:40:24;;;;;;;22.60;11.63;;;;;;;;;;5030355;28;20497;-66
2022/10/07 07:42:50;;;;;;;24.25;10.95;;;;;;;;;;5029876;28;20373;-65
2022/10/07 07:45:17;;;;;;;23.92;10.52;;;;;;;;;;5030348;28;20028;-65
2022/10/07 07:47:45;;;;;;;20.73;10.05;;;;;;;;;;5030711;28;20436;-68
2022/10/07 07:50:11;;;;;;;18.80;10.38;;;;;;;;;;5030233;28;20036;-65
2022/10/07 07:52:37;;;;;;;21.90;10.50;;;;;;;;;;5030266;28;20041;-65
2022/10/07 07:55:04;;;;;;;20.45;10.30;;;;;;;;;;5030320;28;20018;-66
2022/10/07 07:57:30;;;;;;;20.48;10.93;;;;;;;;;;5030537;28;20489;-66
2022/10/07 07:59:57;;;;;;;21.98;10.68;;;;;;;;;;5013033;28;20516;-65
2022/10/07 08:02:23;;;;;;;19.83;10.07;;;;;;;;;;5022240;28;20053;-65
2022/10/07 08:04:49;;;;;;;21.15;10.13;;;;;;;;;;4993109;28;20371;-65
2022/10/07 08:07:15;;;;;;;19.40;11.07;;;;;;;;;;5010803;28;20557;-65
2022/10/07 08:09:41;;;;;;;21.52;11.05;;;;;;;;;;4996122;28;20033;-66
2022/10/07 08:12:08;;;;;;;17.98;10.05;;;;;;;;;;5030251;28;20481;-65
2022/10/07 08:14:35;;;;;;;21.75;10.10;;;;;;;;;;5029848;28;20026;-64
2022/10/07 08:17:01;;;;;;;20.17;11.02;;;;;;;;;;5030586;28;20086;-63
2022/10/07 08:19:29;;;;;;;18.25;9.48;;;;;;;;;;5030561;28;20029;-64
2022/10/07 08:21:58;;;;;;;22.70;10.68;;;;;;;;;;5032519;28;20037;-67
2022/10/07 08:24:24;;;;;;;19.50;10.82;;;;;;;;;;5033585;28;20507;-66
2022/10/07 08:26:52;;;;;;;20.75;10.68;;;;;;;;;;5033917;28;20037;-66
2022/10/07 08:29:19;;;;;;;20.50;10.27;;;;;;;;;;5033605;28;20026;-68
2022/10/07 08:31:45;;;;;;;27.02;10.43;;;;;;;;;;5024090;28;20029;-66
2022/10/07 08:34:11;;;;;;;21.08;10.15;;;;;;;;;;4996183;28;20017;-65
2022/10/07 08:36:38;;;;;;;19.98;9.88;;;;;;;;;;4997111;28;20093;-64
2022/10/07 08:39:04;;;;;;;18.85;10.38;;;;;;;;;;5014577;28;20021;-65
2022/10/07 08:41:31;;;;;;;20.90;9.98;;;;;;;;;;4997249;28;20068;-64
2022/10/07 08:43:58;;;;;;;26.10;11.02;;;;;;;;;;4996477;28;20022;-65
2022/10/07 08:46:27;;;;;;;23.25;10.13;;;;;;;;;;5013633;28;20033;-64
2022/10/07 08:48:59;;;;;;;20.05;10.60;;;;;;;;;;4995593;28;20030;-64
2022/10/07 08:51:33;;;;;;;18.50;10.25;;;;;;;;;;5013459;28;20018;-64
2022/10/07 08:53:59;;;;;;;27.38;9.95;;;;;;;;;;4995751;28;20116;-64
2022/10/07 08:56:26;;;;;;;22.65;10.00;;;;;;;;;;5013509;28;20018;-64
2022/10/07 08:58:53;;;;;;;20.23;9.80;;;;;;;;;;5001770;28;20416;-65
2022/10/07 09:01:22;;;;;;;17.88;9.80;;;;;;;;;;5033287;28;20021;-65
2022/10/07 09:04:07;;;;;;;20.52;9.77;;;;;;;;;;4994462;28;20034;-65
2022/10/07 09:06:35;;;;;;;19.70;10.02;;;;;;;;;;5029223;28;20416;-64
2022/10/07 09:09:04;;;;;;;18.55;9.55;;;;;;;;;;5033260;28;20071;-65
2022/10/07 09:11:31;;;;;;;23.08;10.68;;;;;;;;;;5032926;28;20022;-66
2022/10/07 09:14:03;;;;;;;21.58;10.38;;;;;;;;;;5033180;28;20447;-66
2022/10/07 09:16:35;;;;;;;19.30;10.15;;;;;;;;;;5032942;28;20087;-65
2022/10/07 09:19:02;;;;;;;28.50;10.55;;;;;;;;;;5032874;28;20022;-66
2022/10/07 09:21:47;;;;;;;21.45;10.40;;;;;;;;;;5014722;28;20029;-66
2022/10/07 09:24:21;;;;;;;21.02;10.60;;;;;;;;;;5032422;28;20036;-65
2022/10/07 09:26:47;;;;;;;22.73;10.70;;;;;;;;;;5032718;28;20101;-66
2022/10/07 09:29:13;;;;;;;24.02;10.02;;;;;;;;;;5014561;28;20049;-65
2022/10/07 09:31:39;;;;;;;20.80;9.73;;;;;;;;;;5032391;28;20029;-65
2022/10/07 09:34:06;;;;;;;21.13;9.73;;;;;;;;;;5016296;28;20029;-65
2022/10/07 09:36:32;;;;;;;25.25;11.43;;;;;;;;;;5030870;28;20033;-65
2022/10/07 09:39:14;;;;;;;24.25;10.13;;;;;;;;;;5032429;28;20112;-65
2022/10/07 09:41:41;;;;;;;21.30;10.93;;;;;;;;;;5032352;28;20025;-64
2022/10/07 09:44:16;;;;;;;23.88;10.10;;;;;;;;;;5013926;28;20025;-64
2022/10/07 09:46:42;;;;;;;24.80;11.60;;;;;;;;;;5013963;28;20033;-65
2022/10/07 09:49:26;;;;;;;20.20;10.30;;;;;;;;;;5031486;28;20108;-65
2022/10/07 09:51:58;;;;;;;20.55;10.55;;;;;;;;;;5031971;28;20030;-66
2022/10/07 09:54:24;;;;;;;22.40;10.23;;;;;;;;;;5032067;28;20116;-65
2022/10/07 09:56:54;;;;;;;19.02;9.48;;;;;;;;;;5029476;28;20026;-64
2022/10/07 09:59:20;;;;;;;19.75;10.30;;;;;;;;;;4994755;28;20117;-65
2022/10/07 10:01:57;;;;;;;20.17;10.18;;;;;;;;;;5011986;28;20061;-67
2022/10/07 10:04:31;;;;;;;22.13;9.63;;;;;;;;;;4992539;28;20034;-65
2022/10/07 10:07:18;;;;;;;17.52;10.10;;;;;;;;;;4992916;28;20109;-64
2022/10/07 10:09:49;;;;;;;18.42;9.65;;;;;;;;;;4992380;28;20063;-65
2022/10/07 10:12:15;;;;;;;19.33;9.68;;;;;;;;;;4992435;28;20033;-65
2022/10/07 10:14:47;;;;;;;23.00;10.50;;;;;;;;;;4992390;28;20433;-64
2022/10/07 10:17:30;;;;;;;20.52;9.68;;;;;;;;;;5013851;28;20026;-64
2022/10/07 10:20:16;;;;;;;24.80;10.55;;;;;;;;;;5031853;28;20022;-65
2022/10/07 10:22:42;;;;;;;20.77;10.18;;;;;;;;;;5031444;28;20107;-64
2022/10/07 10:28:05;;;;;;;21.10;10.07;;;;;;;;;;4990990;28;20029;-65
2022/10/07 10:30:34;;;;;;;21.45;11.20;;;;;;;;;;5033128;28;20036;-64
2022/10/07 10:33:18;;;;;;;22.02;10.20;;;;;;;;;;5031586;28;20022;-65
2022/10/07 10:35:50;;;;;;;20.63;10.95;;;;;;;;;;5022351;28;20034;-65
2022/10/07 10:38:16;;;;;;;23.40;9.98;;;;;;;;;;5011597;28;20519;-65
2022/10/07 10:40:42;;;;;;;24.55;11.45;;;;;;;;;;5011567;28;20042;-65
2022/10/07 10:43:09;;;;;;;18.98;10.60;;;;;;;;;;4993517;28;20053;-65
2022/10/07 10:45:35;;;;;;;20.80;11.30;;;;;;;;;;5011390;28;20062;-65
2022/10/07 10:48:19;;;;;;;20.42;10.55;;;;;;;;;;5011320;28;20061;-64
2022/10/07 10:50:56;;;;;;;18.08;10.63;;;;;;;;;;5011406;28;20508;-65
2022/10/07 10:53:22;;;;;;;23.65;11.02;;;;;;;;;;5011127;28;20030;-63
2022/10/07 10:55:57;;;;;;;20.77;10.05;;;;;;;;;;4993771;28;20401;-65
2022/10/07 10:58:23;;;;;;;20.77;11.40;;;;;;;;;;5011344;28;20044;-64
2022/10/07 11:01:02;;;;;;;18.42;10.02;;;;;;;;;;5012292;28;20502;-65
2022/10/07 11:03:36;;;;;;;19.55;10.77;;;;;;;;;;5011092;28;20044;-66
2022/10/07 11:06:05;;;;;;;20.70;11.30;;;;;;;;;;4993692;28;20030;-64
2022/10/07 11:08:33;;;;;;;21.17;10.75;;;;;;;;;;5011079;28;20140;-64
2022/10/07 11:11:08;;;;;;;20.85;10.93;;;;;;;;;;5010927;28;20509;-65
2022/10/07 11:13:34;;;;;;;21.98;11.90;;;;;;;;;;5010688;28;20129;-64
2022/10/07 11:16:20;;;;;;;22.13;10.95;;;;;;;;;;5011097;28;20100;-64
2022/10/07 11:18:46;;;;;;;21.25;11.65;;;;;;;;;;5010773;28;20104;-64
2022/10/07 11:21:38;;;;;;;20.85;11.15;;;;;;;;;;5011620;28;20088;-65
2022/10/07 11:24:15;;;;;;;22.33;11.70;;;;;;;;;;4988920;28;20104;-64
2022/10/07 11:26:43;;;;;;;17.88;10.30;;;;;;;;;;4993264;28;20025;-66
2022/10/07 11:29:22;;;;;;;17.75;10.45;;;;;;;;;;5010639;28;20030;-64
2022/10/07 11:31:52;;;;;;;19.55;11.88;;;;;;;;;;4992722;28;20026;-63
2022/10/07 11:34:24;;;;;;;19.40;11.38;;;;;;;;;;5010255;28;20033;-65
2022/10/07 11:37:15;;;;;;;23.15;11.10;;;;;;;;;;5010518;28;20028;-64
2022/10/07 11:39:41;;;;;;;21.73;11.65;;;;;;;;;;4998797;28;20094;-61
2022/10/07 11:42:21;;;;;;;22.17;12.48;;;;;;;;;;4993195;28;20496;-62
2022/10/07 11:44:50;;;;;;;21.80;11.95;;;;;;;;;;5011119;28;20092;-64
2022/10/07 11:47:20;;;;;;;17.92;10.95;;;;;;;;;;5010552;28;20084;-65
2022/10/07 11:49:59;;;;;;;19.98;11.57;;;;;;;;;;4992832;28;20057;-66
2022/10/07 11:52:26;;;;;;;21.42;11.93;;;;;;;;;;5010663;28;20018;-65
2022/10/07 11:54:58;;;;;;;20.70;12.50;;;;;;;;;;5010544;28;20128;-65
2022/10/07 11:57:25;;;;;;;22.17;12.57;;;;;;;;;;4996745;28;20050;-66
2022/10/07 11:59:57;;;;;;;21.65;11.85;;;;;;;;;;5015126;28;20041;-66
2022/10/07 12:02:29;;;;;;;20.40;11.93;;;;;;;;;;5014319;28;20021;-65
2022/10/07 12:04:59;;;;;;;20.30;11.75;;;;;;;;;;5014102;28;20448;-65
2022/10/07 12:07:37;;;;;;;20.08;12.30;;;;;;;;;;5014576;28;20030;-64
2022/10/07 12:10:03;;;;;;;23.38;12.10;;;;;;;;;;5030728;28;20373;-64
2022/10/07 12:12:42;;;;;;;21.42;12.27;;;;;;;;;;5033871;28;20049;-65
2022/10/07 12:15:27;;;;;;;23.80;12.32;;;;;;;;;;5034116;28;20017;-65
2022/10/07 12:18:16;;;;;;;20.88;11.63;;;;;;;;;;5034486;28;20353;-65
2022/10/07 12:20:51;;;;;;;21.42;11.98;;;;;;;;;;5033561;28;20033;-66
2022/10/07 12:23:18;;;;;;;20.92;12.13;;;;;;;;;;5111603;22;20052;-59
2022/10/07 12:25:45;;;;;;;24.10;12.32;;;;;;;;;;5114245;28;20085;-60
2022/10/07 12:28:30;;;;;;;19.23;12.63;;;;;;;;;;5115780;28;20466;-59
2022/10/07 12:31:17;;;;;;;21.65;12.70;;;;;;;;;;5114911;28;20103;-59
2022/10/07 12:33:43;;;;;;;20.52;12.23;;;;;;;;;;5063876;28;20042;-58
2022/10/07 12:36:20;;;;;;;20.73;12.45;;;;;;;;;;5095253;28;20114;-60
2022/10/07 12:39:10;;;;;;;20.48;11.82;;;;;;;;;;5091934;28;20382;-61
2022/10/07 12:41:38;;;;;;;20.30;12.52;;;;;;;;;;5093663;28;20398;-61
2022/10/07 12:44:23;;;;;;;20.85;12.77;;;;;;;;;;5094631;28;20097;-61
2022/10/07 12:46:52;;;;;;;21.73;12.65;;;;;;;;;;5094993;28;20176;-55
2022/10/07 12:49:18;;;;;;;20.90;13.02;;;;;;;;;;5094826;28;20028;-59
2022/10/07 12:51:44;;;;;;;23.52;12.88;;;;;;;;;;5093504;28;20031;-61
2022/10/07 12:54:19;;;;;;;20.80;12.55;;;;;;;;;;5094333;28;20027;-61
2022/10/07 12:56:45;;;;;;;22.65;12.25;;;;;;;;;;5093401;28;20491;-61
2022/10/07 12:59:49;;;;;;;25.98;12.93;;;;;;;;;;5094340;28;20024;-60
2022/10/07 13:02:30;;;;;;;19.90;12.55;;;;;;;;;;5094044;28;20107;-58
2022/10/07 13:05:15;;;;;;;21.38;12.20;;;;;;;;;;5092733;28;20031;-61
2022/10/07 13:07:53;;;;;;;20.98;12.55;;;;;;;;;;5093145;28;20052;-59
2022/10/07 13:10:37;;;;;;;22.75;12.60;;;;;;;;;;5094359;28;20024;-60
2022/10/07 13:13:23;;;;;;;22.65;13.00;;;;;;;;;;5094006;28;20035;-63
2022/10/07 13:15:52;;;;;;;24.48;12.73;;;;;;;;;;5094315;28;20115;-61
2022/10/07 13:18:47;;;;;;;22.73;12.32;;;;;;;;;;5094679;28;20549;-62
2022/10/07 13:21:16;;;;;;;19.55;11.88;;;;;;;;;;5077981;28;20446;-60
2022/10/07 13:23:49;;;;;;;20.73;12.25;;;;;;;;;;5095433;28;20046;-61
2022/10/07 13:26:15;;;;;;;25.20;12.50;;;;;;;;;;5095146;28;20089;-66
2022/10/07 13:28:46;;;;;;;22.00;11.93;;;;;;;;;;5094503;28;20031;-65
2022/10/07 13:31:17;;;;;;;21.17;12.60;;;;;;;;;;5092979;28;20020;-58
2022/10/07 13:33:44;;;;;;;20.70;11.52;;;;;;;;;;5093921;28;20102;-60
2022/10/07 13:36:15;;;;;;;20.40;11.35;;;;;;;;;;5093933;28;20016;-60
2022/10/07 13:38:42;;;;;;;19.67;11.75;;;;;;;;;;5094074;28;20024;-61
2022/10/07 13:41:14;;;;;;;20.08;12.07;;;;;;;;;;5093244;28;20433;-58
2022/10/07 13:43:42;;;;;;;20.30;12.20;;;;;;;;;;5093195;28;20023;-58
2022/10/07 13:46:08;;;;;;;;;;;;;;;;;;5093958;28;20048;-60
2022/10/07 13:48:37;;;;;;;19.08;11.85;;;;;;;;;;5092545;28;20002;-61
2022/10/07 13:51:04;;;;;;;24.50;12.77;;;;;;;;;;5093392;28;20016;-57
2022/10/07 13:53:35;;;;;;;20.75;12.88;;;;;;;;;;5093195;28;20028;-61
2022/10/07 13:56:04;;;;;;;22.58;12.98;;;;;;;;;;5093814;28;20068;-61
2022/10/07 13:58:31;;;;;;;18.80;12.80;;;;;;;;;;5091942;28;20023;-59
2022/10/07 14:00:57;;;;;;;22.25;12.73;;;;;;;;;;5093566;28;20051;-59
2022/10/07 14:03:23;;;;;;;17.85;12.05;;;;;;;;;;5093090;28;20523;-60
2022/10/07 14:05:51;;;;;;;22.52;12.40;;;;;;;;;;5093213;28;20038;-59
2022/10/07 14:08:22;;;;;;;21.00;12.48;;;;;;;;;;5093212;28;20024;-58
2022/10/07 14:11:08;;;;;;;21.52;12.70;;;;;;;;;;5091799;28;20028;-61
2022/10/07 14:13:36;;;;;;;25.17;13.48;;;;;;;;;;5092388;28;20028;-62
2022/10/07 14:16:03;;;;;;;21.80;12.50;;;;;;;;;;5093477;28;20017;-61
2022/10/07 14:18:30;;;;;;;19.85;12.18;;;;;;;;;;5092647;28;20016;-60
2022/10/07 14:21:17;;;;;;;24.77;12.97;;;;;;;;;;5092094;28;20119;-61
2022/10/07 14:23:45;;;;;;;20.15;12.63;;;;;;;;;;5092680;28;20278;-61
2022/10/07 14:26:13;;;;;;;19.70;11.75;;;;;;;;;;5093007;28;20081;-59
2022/10/07 14:28:41;;;;;;;22.67;12.05;;;;;;;;;;5092842;28;20036;-61
2022/10/07 14:37:10;;;;;;;18.75;12.07;;;;;;;;;;5089905;28;20235;-60
2022/10/07 14:39:46;;;;;;;25.58;12.43;;;;;;;;;;5089171;28;20625;-61
2022/10/07 14:42:21;;;;;;;22.63;12.38;;;;;;;;;;5090233;28;20062;-60
2022/10/07 14:44:48;;;;;;;22.42;12.75;;;;;;;;;;5087004;28;20522;-59
2022/10/07 14:47:23;;;;;;;21.40;11.73;;;;;;;;;;5090261;28;20085;-66
2022/10/07 14:49:51;;;;;;;21.67;12.32;;;;;;;;;;5088566;28;20031;-62